createdAt,value
2022-10-24T00:10:25.950Z,431.1571906354515
2022-10-24T00:17:31.546Z,485.9297658862876
2022-10-24T00:24:58.175Z,441.96321070234114
2022-10-24T00:32:24.246Z,455.4180602006689
2022-10-24T00:43:44.272Z,436.75585284280936
2022-10-24T00:51:34.122Z,444.2608695652174
2022-10-24T00:59:02.881Z,466.9163879598662
2022-10-24T01:06:39.850Z,408.83277591973246
2022-10-24T01:13:58.062Z,411.32107023411373
2022-10-24T01:21:19.294Z,425.5886287625418
2022-10-24T01:28:57.465Z,370.88628762541805
2022-10-24T01:36:09.917Z,411.571906354515
2022-10-24T01:43:48.547Z,379.86622073578593
2022-10-24T01:56:07.778Z,392.17725752508363
2022-10-24T02:03:39.974Z,389.809364548495
2022-10-24T02:11:01.230Z,351.7324414715719
2022-10-24T02:18:24.462Z,398.5183946488294
2022-10-24T02:26:13.688Z,381.95317725752506
2022-10-24T02:33:53.047Z,389.2876254180602
2022-10-24T02:41:22.242Z,423.2809364548495
2022-10-24T02:55:23.132Z,399.0702341137124
2022-10-24T03:03:13.629Z,451.24414715719064
2022-10-24T03:11:12.355Z,428.40802675585286
2022-10-24T03:18:26.231Z,439.10367892976586
2022-10-24T03:25:49.405Z,496.52508361204013
2022-10-24T03:32:55.075Z,473.01672240802674
2022-10-24T03:40:21.356Z,509.66889632107024
2022-10-24T03:47:31.633Z,476.7792642140468
2022-10-24T03:55:04.216Z,475.45484949832775
2022-10-24T04:02:21.025Z,534.3311036789298
2022-10-24T04:09:33.514Z,535.5852842809364
2022-10-24T04:17:09.259Z,640.7056856187291
2022-10-24T04:25:01.619Z,557.7190635451504
2022-10-24T04:32:38.893Z,571.14381270903
2022-10-24T04:40:12.320Z,574.1739130434783
2022-10-24T04:47:41.972Z,564.8127090301003
2022-10-24T04:55:27.450Z,575.2976588628762
2022-10-24T05:03:03.241Z,589.2040133779265
2022-10-24T05:21:49.120Z,644.1471571906354
2022-10-24T05:32:05.487Z,638.9397993311037
2022-10-24T05:38:34.575Z,665.6086956521739
2022-10-24T05:48:12.051Z,705.9732441471572
2022-10-24T05:54:55.086Z,739.113712374582
2022-10-24T06:01:36.928Z,825.0200668896321
2022-10-24T06:08:09.481Z,716.3076923076923
2022-10-24T06:16:54.473Z,713.819397993311
2022-10-24T06:30:21.485Z,725.9799331103679
2022-10-24T06:42:28.871Z,772.4949832775919
2022-10-24T06:48:56.545Z,714.2207357859531
2022-10-24T06:55:27.443Z,693.2909698996656
2022-10-24T07:03:37.855Z,704.7892976588629
2022-10-24T07:10:08.105Z,650.7692307692307
2022-10-24T07:16:46.389Z,650.5484949832776
2022-10-24T07:23:15.260Z,692.8595317725752
2022-10-24T07:29:58.559Z,700.8361204013378
2022-10-24T07:39:52.735Z,590.428093645485
2022-10-24T07:46:20.480Z,574.2140468227425
2022-10-24T07:52:47.826Z,563.3478260869565
2022-10-24T07:59:37.086Z,588.6822742474916
2022-10-24T08:06:08.322Z,556.7959866220735
2022-10-24T08:12:35.611Z,500.40802675585286
2022-10-24T08:19:03.622Z,529.4749163879599
2022-10-24T08:25:43.787Z,576.551839464883
2022-10-24T08:40:21.103Z,455.44816053511704
2022-10-24T08:46:48.831Z,457.3444816053512
2022-10-24T08:53:16.681Z,418.314381270903
2022-10-24T08:59:44.235Z,411.4314381270903
2022-10-24T09:06:11.545Z,415.5150501672241
2022-10-24T09:12:38.986Z,426.3411371237458
2022-10-24T09:19:06.838Z,373.7658862876254
2022-10-24T09:25:41.419Z,393.2909698996655
2022-10-24T09:35:54.683Z,329.4882943143813
2022-10-24T09:42:21.823Z,315.1505016722408
2022-10-24T09:48:49.725Z,278.03678929765886
2022-10-24T09:55:16.837Z,284.66889632107024
2022-10-24T10:07:49.715Z,313.7759197324415
2022-10-24T10:14:17.967Z,270.47157190635454
2022-10-24T10:20:46.099Z,264.40133779264215
2022-10-24T10:27:22.209Z,293.25752508361205
2022-10-24T10:33:50.377Z,302.066889632107
2022-10-24T10:40:18.736Z,276.7725752508361
2022-10-24T10:46:46.485Z,328.03344481605353
2022-10-24T10:53:14.373Z,330.9130434782609
2022-10-24T10:59:42.342Z,300.3411371237458
2022-10-24T11:06:09.818Z,306.0802675585284
2022-10-24T11:12:38.286Z,332.7692307692308
2022-10-24T11:19:07.131Z,320.32775919732444
2022-10-24T11:28:14.173Z,319.88628762541805
2022-10-24T11:39:07.944Z,364.9966555183947
2022-10-24T11:54:47.251Z,355.4247491638796
2022-10-24T12:01:15.165Z,340.3745819397993
2022-10-24T12:07:42.424Z,358.95652173913044
2022-10-24T12:14:10.587Z,355.0133779264214
2022-10-24T12:20:38.151Z,333.2909698996655
2022-10-24T12:27:13.161Z,307.3344481605351
2022-10-24T12:33:40.948Z,304.9264214046823
2022-10-24T12:40:08.866Z,338.2274247491639
2022-10-24T12:48:19.262Z,282.8628762541806
2022-10-24T12:54:48.077Z,201.87290969899666
2022-10-24T13:01:17.110Z,206.33779264214047
2022-10-24T13:07:48.569Z,212.36789297658862
2022-10-24T13:14:19.199Z,208.94648829431438
2022-10-24T13:30:56.086Z,182.5284280936455
2022-10-24T13:37:23.302Z,190.45484949832775
2022-10-24T13:43:51.561Z,184.63545150501673
2022-10-24T13:50:18.892Z,197.30769230769232
2022-10-24T13:56:46.487Z,206.16722408026754
2022-10-24T14:03:14.031Z,217.47491638795987
2022-10-24T14:11:19.776Z,236.0066889632107
2022-10-24T14:17:50.585Z,213.89297658862876
2022-10-24T14:24:29.525Z,219.5819397993311
2022-10-24T14:30:58.192Z,209.8494983277592
2022-10-24T14:37:26.329Z,192.90301003344482
2022-10-24T14:43:55.213Z,209.01672240802677
2022-10-24T15:00:43.481Z,214.60535117056855
2022-10-24T15:07:11.241Z,202.00334448160535
2022-10-24T15:13:39.547Z,207.9933110367893
2022-10-24T15:20:07.157Z,202.43478260869566
2022-10-24T15:26:49.670Z,237.70234113712374
2022-10-24T15:33:18.185Z,257.04682274247494
2022-10-24T15:43:56.370Z,268.04347826086956
2022-10-24T15:50:24.427Z,262.2943143812709
2022-10-24T15:56:52.734Z,298.0635451505017
2022-10-24T16:03:20.787Z,257.5183946488294
2022-10-24T16:18:51.552Z,242.93979933110367
2022-10-24T16:29:44.341Z,276.68227424749165
2022-10-24T16:36:14.915Z,281.3478260869565
2022-10-24T16:48:08.633Z,321.70234113712377
2022-10-24T16:55:43.041Z,313.88628762541805
2022-10-24T17:02:11.294Z,301.11371237458195
2022-10-24T17:08:39.469Z,301.505016722408
2022-10-24T17:15:07.979Z,312.10033444816054
2022-10-24T17:21:36.120Z,342.53177257525084
2022-10-24T17:28:18.290Z,296.94983277591973
2022-10-24T17:34:45.615Z,296.18729096989966
2022-10-24T17:41:13.833Z,305.59866220735785
2022-10-24T17:51:24.779Z,332.8494983277592
2022-10-24T17:57:54.312Z,365.1571906354515
2022-10-24T18:04:24.783Z,354.8026755852843
2022-10-24T18:16:17.753Z,406.0635451505017
2022-10-24T18:28:46.165Z,408.4816053511706
2022-10-24T18:35:19.615Z,428.428093645485
2022-10-24T18:41:48.499Z,445.5551839464883
2022-10-24T18:48:20.347Z,385.494983277592
2022-10-24T18:54:51.540Z,394.39464882943145
2022-10-24T19:01:23.649Z,410.23745819397993
2022-10-24T19:07:53.281Z,445.0836120401338
2022-10-24T19:21:51.383Z,459.3511705685619
2022-10-24T19:28:23.403Z,483.3612040133779
2022-10-24T19:34:57.181Z,452.83946488294316
2022-10-24T19:41:34.729Z,454.45484949832775
2022-10-24T19:48:06.933Z,462.60200668896323
2022-10-24T19:54:39.313Z,461.0267558528428
2022-10-24T20:01:13.021Z,442.9464882943144
2022-10-24T20:24:47.111Z,519.0200668896321
2022-10-24T20:31:40.221Z,489.24080267558526
2022-10-24T20:38:34.622Z,501.3010033444816
2022-10-24T20:46:19.353Z,488.53846153846155
2022-10-24T20:52:48.857Z,441.1705685618729
2022-10-24T21:04:03.864Z,482.7391304347826
2022-10-24T21:10:34.470Z,457.2240802675585
2022-10-24T21:17:02.400Z,480.59197324414714
2022-10-24T21:23:32.181Z,467.4882943143813
2022-10-24T21:30:14.829Z,441.1404682274248
2022-10-24T21:37:55.259Z,473.6989966555184
2022-10-24T21:44:22.923Z,445.876254180602
2022-10-24T21:50:50.458Z,495.9230769230769
2022-10-24T21:58:31.531Z,457.26421404682276
2022-10-24T22:05:00.034Z,482.628762541806
2022-10-24T22:11:28.512Z,510.1304347826087
2022-10-24T22:17:56.506Z,473.8494983277592
2022-10-24T22:24:24.234Z,508.30434782608694
2022-10-24T22:42:40.199Z,454.2842809364549
2022-10-24T23:00:38.587Z,477.32107023411373
2022-10-24T23:07:11.703Z,506.96989966555185
2022-10-24T23:13:40.606Z,559.8461538461538
2022-10-24T23:23:55.400Z,545.8595317725752
2022-10-24T23:31:07.465Z,556.5852842809364
2022-10-24T23:37:38.730Z,510.9230769230769
2022-10-24T23:44:09.070Z,535.123745819398
2022-10-24T23:50:39.106Z,561.6822742474916
